Jones, OK (73049)

6:33 PM CDT on October 22, 2014 (GMT -0500)
Forest Creek at NE 10th & Triple XXX | Change Station
CLOSE
Current Station
Personal Weather Station
Location: Choctaw, OK
Elevation: 1137 ft
Nearby Weather Stations

Elev 1137 ft 35.48 °N, 97.24 °W | Updated 1 minute ago

Partly Cloudy
Partly Cloudy
74.2 °F
Feels Like 77 °F
N
0.0
Wind Variable Wind from South
Gusts 1.2 mph

Today
High -- | Low -- °F
--% Chance of Precip.
Yesterday
High -- | Low -- °F
Precip. -- in
7:41 AM 6:45 PM
Waning Crescent, 1% visible
Pressure 30.08 in
Visibility 10.0 miles
Clouds Clear
Heat Index 77 °F
Dew Point 60 °F
Humidity 61%
Rainfall 0.00 in
Snow Depth Not available.
UV 0 out of 12
Pollen 5.50 out of 12
Ozone Good
PM2.5 Moderate
Flu Activity No Activity
METAR KTIK 222258Z AUTO 16006KT 10SM CLR 23/15 A3008 RMK AO2 SLP186 T02290146 $

More Conditions Fewer Conditions

Pressure 30.08 in
Visibility 10.0 miles
Clouds Clear
Heat Index 77 °F
Dew Point 60 °F
Humidity 61%
Rainfall 0.00 in
Snow Depth Not available.
UV 0 out of 12
Pollen 5.50 out of 12
Ozone Good
PM2.5 Moderate
Flu Activity No Activity
METAR KTIK 222258Z AUTO 16006KT 10SM CLR 23/15 A3008 RMK AO2 SLP186 T02290146 $

More Conditions Fewer Conditions

10-Day Weather Forecast

Almanac

Astronomy

Oct. 22, 2014 Rise Set
Actual Time 7:41 AM CDT 6:45 PM CDT
Civil Twilight 7:15 AM CDT 7:10 PM CDT
Nautical Twilight 6:46 AM CDT 7:40 PM CDT
Astronomical Twilight 6:16 AM CDT 8:10 PM CDT
Moon 6:27 AM CDT 6:10 PM CDT
Length of Visible Light 11h 55m
Length of Day
11h 03m
Tomorrow will be 2m 5s shorter.
Waning Crescent, 1% of the Moon is Illuminated
Today
Waning Crescent
Oct 23
New
Oct 30
First Quarter
Nov 6
Full
Nov 14
Last Quarter

Today's Extremes

State Highs State Lows

Community

WunderPhotos

Upload Photos

1,764,080 photos uploaded!

WunderBlogs® & News

Nearby

Air Quality

  Air Quality AQ Index Pollutant
Yesterday Moderate
PM2.5
Yesterday Good
OZONE
Current Moderate
PM2.5
Current Good
OZONE
Wednesday Moderate
PM2.5
Wednesday Moderate
OZONE
Thursday Moderate
PM2.5
Thursday Moderate
OZONE
Friday Moderate
OZONE
Friday Good
PM2.5
Saturday Moderate
OZONE
Saturday Good
PM2.5

Snow Depth

Station Depth Elevation
No new snow has been reported.

Earthquake Activity

City Distance Mag. Time & Date
Mooreland, Oklahoma 113 miles 2.8 5:31 PM CDT
2014-10-22
Mooreland, Oklahoma 117 miles 2.5 11:19 AM CDT
2014-10-22
Mooreland, Oklahoma 116 miles 2.8 11:04 AM CDT
2014-10-22
Mooreland, Oklahoma 116 miles 3.5 10:58 AM CDT
2014-10-22
Minimum magnitude displayed is 2.5.

Coastal Water Temperatures

Place Temperature
No Stations Reporting

Nearby Weather Stations